Time;durP1;ratioP1;P1;durP2;ratioP2;P2;SDS_P1;SDS_P2;PMS_P1;PMS_P2;Temp;Humidity;BMP_temperature;BMP_pressure;BME280_temperature;BME280_humidity;BME280_pressure;Samples;Min_cycle;Max_cycle;Signal;HPM_P1;HPM_P2
2023/04/26 00:02:03;;;;;;;10.27;5.93;;;5.70;99.90;;;4.88;100.00;97266.72;5037234;28;20036;-36
2023/04/26 00:04:30;;;;;;;13.13;6.75;;;5.60;99.90;;;4.84;100.00;97270.28;5041686;28;20116;-36
2023/04/26 00:06:56;;;;;;;8.98;6.30;;;5.60;99.90;;;4.83;100.00;97269.44;5036219;28;20119;-36
2023/04/26 00:09:22;;;;;;;11.20;6.00;;;5.60;99.90;;;4.82;100.00;97259.84;5030546;28;20050;-36
2023/04/26 00:11:48;;;;;;;10.18;6.32;;;5.60;99.90;;;4.75;100.00;97255.63;5036978;28;20404;-36
2023/04/26 00:14:14;;;;;;;9.93;6.30;;;5.60;99.90;;;4.77;100.00;97266.91;5038363;28;20029;-36
2023/04/26 00:16:39;;;;;;;13.68;6.03;;;5.50;99.90;;;4.75;100.00;97274.75;5033934;28;20012;-36
2023/04/26 00:19:05;;;;;;;9.95;5.93;;;5.50;99.90;;;4.67;100.00;97263.59;5043452;28;20399;-36
2023/04/26 00:21:31;;;;;;;10.40;5.63;;;5.50;99.90;;;4.68;100.00;97270.50;5035395;28;20044;-36
2023/04/26 00:23:57;;;;;;;12.05;5.78;;;5.50;99.90;;;4.66;100.00;97272.28;5033345;28;20032;-36
2023/04/26 00:26:23;;;;;;;10.82;5.53;;;5.40;99.90;;;4.58;100.00;97250.66;5037380;28;20041;-36
2023/04/26 00:28:48;;;;;;;7.80;5.43;;;5.40;99.90;;;4.66;100.00;97266.22;5036273;28;20965;-38
2023/04/26 00:31:17;;;;;;;12.00;5.35;;;5.40;99.90;;;4.63;100.00;97276.69;5035274;28;20036;-36
2023/04/26 00:33:43;;;;;;;11.45;6.07;;;5.40;99.90;;;4.61;100.00;97268.88;5036589;28;20066;-36
2023/04/26 00:36:09;;;;;;;11.65;5.80;;;5.30;99.90;;;4.59;100.00;97270.66;5030637;28;20029;-36
2023/04/26 00:38:35;;;;;;;9.25;5.20;;;5.30;99.90;;;4.54;100.00;97264.63;5031477;28;21490;-36
2023/04/26 00:41:01;;;;;;;8.88;5.40;;;5.30;99.90;;;4.49;100.00;97271.72;5016638;28;20044;-36
2023/04/26 00:43:27;;;;;;;8.57;5.47;;;5.20;99.90;;;4.43;100.00;97267.41;5030194;28;20039;-36
2023/04/26 00:45:53;;;;;;;8.85;4.88;;;5.20;99.90;;;4.42;100.00;97268.31;5025833;28;20032;-36
2023/04/26 00:48:19;;;;;;;8.30;5.03;;;5.20;99.90;;;4.43;100.00;97269.16;5026869;28;20116;-36
2023/04/26 00:50:48;;;;;;;11.90;5.47;;;5.20;99.90;;;4.33;100.00;97258.88;5024054;28;20124;-36
2023/04/26 00:53:16;;;;;;;8.73;5.55;;;5.20;99.90;;;4.42;100.00;97275.28;5025861;28;20357;-36
2023/04/26 00:55:42;;;;;;;8.48;5.15;;;5.20;99.90;;;4.32;100.00;97267.56;5013865;28;20097;-36
2023/04/26 00:58:08;;;;;;;8.65;5.85;;;5.20;99.90;;;4.34;100.00;97273.66;5012069;28;20028;-36
2023/04/26 01:00:33;;;;;;;9.18;6.00;;;5.10;99.90;;;4.31;100.00;97259.78;5030001;28;20033;-36
2023/04/26 01:03:00;;;;;;;8.57;5.95;;;5.10;99.90;;;4.33;100.00;97271.91;5024896;28;20657;-36
2023/04/26 01:05:25;;;;;;;8.02;5.20;;;5.10;99.90;;;4.26;100.00;97259.84;5030215;28;20139;-36
2023/04/26 01:07:51;;;;;;;11.38;5.53;;;5.10;99.90;;;4.24;100.00;97264.22;5038570;28;20021;-36
2023/04/26 01:10:17;;;;;;;12.73;6.07;;;5.10;99.90;;;4.23;100.00;97272.06;5021005;28;20033;-36
2023/04/26 01:12:43;;;;;;;11.07;6.32;;;5.00;99.90;;;4.15;100.00;97274.78;5038356;28;20029;-36
2023/04/26 01:15:10;;;;;;;10.75;5.70;;;5.00;99.90;;;4.15;100.00;97280.00;5039451;28;20043;-36
2023/04/26 01:17:36;;;;;;;12.00;5.30;;;4.90;99.90;;;4.09;100.00;97278.34;5044230;28;20032;-36
2023/04/26 01:20:04;;;;;;;11.75;5.47;;;4.90;99.90;;;4.04;100.00;97281.88;5037541;28;20128;-36
2023/04/26 01:22:33;;;;;;;9.35;5.43;;;4.90;99.90;;;4.03;100.00;97277.56;5042002;28;20127;-36
2023/04/26 01:25:03;;;;;;;10.80;5.40;;;4.80;99.90;;;3.98;100.00;97280.22;5042356;28;20103;-36
2023/04/26 01:27:28;;;;;;;9.50;5.45;;;4.80;99.90;;;3.97;100.00;97276.75;5042587;28;20032;-36
2023/04/26 01:29:54;;;;;;;8.27;4.72;;;4.80;99.90;;;3.94;100.00;97279.38;5038713;28;20706;-36
2023/04/26 01:32:20;;;;;;;9.48;5.28;;;4.80;99.90;;;3.92;100.00;97262.91;5034629;28;20028;-36
2023/04/26 01:34:46;;;;;;;10.38;4.75;;;4.70;99.90;;;3.94;100.00;97270.72;5042627;28;20480;-36
2023/04/26 01:37:11;;;;;;;9.80;5.15;;;4.70;99.90;;;3.88;100.00;97263.81;5041316;28;20037;-36
2023/04/26 01:39:37;;;;;;;10.25;5.03;;;4.60;99.90;;;3.79;100.00;97267.41;5045778;28;20420;-36
2023/04/26 01:42:04;;;;;;;8.63;5.53;;;4.60;99.90;;;3.80;100.00;97273.47;5030289;28;20117;-36
2023/04/26 01:44:30;;;;;;;8.45;5.43;;;4.60;99.90;;;3.82;100.00;97267.38;5033832;28;20036;-36
2023/04/26 01:46:55;;;;;;;9.73;5.00;;;4.60;99.90;;;3.83;100.00;97269.09;5042067;28;20043;-36
2023/04/26 01:49:22;;;;;;;7.38;4.88;;;4.60;99.90;;;3.85;100.00;97266.47;5034579;28;20060;-36
2023/04/26 01:51:48;;;;;;;7.97;5.40;;;4.70;99.90;;;3.86;100.00;97269.94;5032598;28;20123;-36
2023/04/26 01:54:13;;;;;;;10.52;5.05;;;4.70;99.90;;;3.91;100.00;97283.78;5032687;28;20029;-36
2023/04/26 01:56:40;;;;;;;8.52;4.60;;;4.70;99.90;;;3.92;100.00;97272.47;5038214;28;20303;-36
2023/04/26 01:59:05;;;;;;;7.22;4.70;;;4.70;99.90;;;3.91;100.00;97276.84;5045797;28;20083;-36
2023/04/26 02:01:31;;;;;;;8.27;4.47;;;4.70;99.90;;;3.66;100.00;97234.53;5036768;28;20045;-36
2023/04/26 02:03:57;;;;;;;6.20;4.43;;;4.70;99.90;;;3.79;100.00;97261.34;5039434;28;20404;-36
2023/04/26 02:06:22;;;;;;;12.43;5.28;;;4.60;99.90;;;3.85;100.00;97269.06;5036360;28;20152;-36
2023/04/26 02:08:48;;;;;;;11.65;5.25;;;4.60;99.90;;;3.87;100.00;97264.69;5036446;28;20048;-36
2023/04/26 02:11:14;;;;;;;10.50;4.80;;;4.60;99.90;;;3.91;100.00;97271.63;5037413;28;20037;-36
2023/04/26 02:13:40;;;;;;;7.93;5.35;;;4.60;99.90;;;3.92;100.00;97262.03;5038002;28;20480;-36
2023/04/26 02:16:06;;;;;;;7.68;5.30;;;4.60;99.90;;;3.81;100.00;97246.53;5040915;28;20055;-36
2023/04/26 02:18:33;;;;;;;9.95;5.70;;;4.70;99.90;;;3.93;100.00;97271.56;5022463;28;20036;-36
2023/04/26 02:20:58;;;;;;;12.55;6.18;;;4.70;99.90;;;3.94;100.00;97263.72;5034933;28;20116;-36
2023/04/26 02:23:24;;;;;;;10.20;5.53;;;4.70;99.90;;;3.93;100.00;97262.03;5030221;28;20029;-36
2023/04/26 02:25:50;;;;;;;10.15;5.50;;;4.70;99.90;;;3.97;100.00;97253.25;5024342;28;20102;-36
2023/04/26 02:28:16;;;;;;;10.82;5.93;;;4.70;99.90;;;3.94;100.00;97258.50;5031179;28;20040;-36
2023/04/26 02:30:43;;;;;;;14.65;6.88;;;4.70;99.90;;;3.93;100.00;97269.84;5022529;28;20533;-36
2023/04/26 02:33:09;;;;;;;14.73;6.95;;;4.70;99.90;;;3.91;100.00;97274.22;5030451;28;20040;-37
2023/04/26 02:35:38;;;;;;;9.15;6.93;;;4.70;99.90;;;3.89;100.00;97277.72;5033450;28;20033;-37
2023/04/26 02:38:04;;;;;;;12.15;7.43;;;4.60;99.90;;;3.82;100.00;97277.81;5039299;28;20033;-37
2023/04/26 02:40:30;;;;;;;14.80;6.82;;;4.60;99.90;;;3.83;100.00;97276.06;5028130;28;20067;-37
2023/04/26 02:42:56;;;;;;;12.27;6.18;;;4.60;99.90;;;3.80;100.00;97270.88;5036958;28;20040;-37
2023/04/26 02:45:22;;;;;;;12.93;5.72;;;4.60;99.90;;;3.75;100.00;97270.06;5019681;28;20063;-37
2023/04/26 02:47:47;;;;;;;13.00;6.85;;;4.60;99.90;;;3.76;100.00;97263.97;5022196;28;20753;-36
2023/04/26 02:50:13;;;;;;;12.43;6.97;;;4.60;99.90;;;3.77;100.00;97261.34;5029861;28;20624;-36
2023/04/26 02:52:39;;;;;;;15.93;6.78;;;4.60;99.90;;;3.82;100.00;97272.59;5035354;28;20037;-37
2023/04/26 02:55:06;;;;;;;11.73;6.88;;;4.60;99.90;;;3.80;100.00;97266.53;5035778;28;20028;-37
2023/04/26 02:57:32;;;;;;;17.15;10.70;;;4.60;99.90;;;3.89;100.00;97281.19;5038035;28;20500;-37
2023/04/26 02:59:58;;;;;;;15.52;8.88;;;4.60;99.90;;;3.88;100.00;97266.44;5031295;28;20189;-37
2023/04/26 03:02:24;;;;;;;12.63;8.38;;;4.70;99.90;;;3.91;100.00;97269.00;5030150;28;20084;-37
2023/04/26 03:04:49;;;;;;;13.95;7.90;;;4.60;99.90;;;3.91;100.00;97270.72;5025175;28;20037;-39
2023/04/26 03:07:15;;;;;;;11.63;7.97;;;4.60;99.90;;;3.87;100.00;97266.44;5028815;28;20439;-37
2023/04/26 03:09:41;;;;;;;14.13;8.50;;;4.60;99.90;;;3.80;100.00;97265.66;5031968;28;20041;-37
2023/04/26 03:12:08;;;;;;;15.20;9.20;;;4.60;99.90;;;3.74;100.00;97279.63;5033674;28;20381;-37
2023/04/26 03:14:34;;;;;;;14.68;8.60;;;4.50;99.90;;;3.72;100.00;97273.56;5042360;28;20387;-37
2023/04/26 03:17:01;;;;;;;11.93;8.10;;;4.50;99.90;;;3.74;100.00;97277.03;5035055;28;20059;-37
2023/04/26 03:19:27;;;;;;;11.57;7.75;;;4.50;99.90;;;3.72;100.00;97280.53;5034589;28;20020;-37
2023/04/26 03:21:54;;;;;;;16.08;9.57;;;4.50;99.90;;;3.68;100.00;97273.63;5034803;28;20085;-37
2023/04/26 03:24:19;;;;;;;17.70;9.32;;;4.40;99.90;;;3.66;100.00;97276.28;5030689;28;20103;-37
2023/04/26 03:26:45;;;;;;;18.17;10.15;;;4.40;99.90;;;3.62;100.00;97266.72;5024581;28;20565;-37
2023/04/26 03:29:11;;;;;;;14.63;10.27;;;4.40;99.90;;;3.65;100.00;97273.66;5031645;28;20060;-40
2023/04/26 03:31:37;;;;;;;18.23;11.07;;;4.40;99.90;;;3.65;100.00;97284.09;5034462;28;20032;-38
2023/04/26 03:34:03;;;;;;;16.85;11.05;;;4.40;99.90;;;3.63;100.00;97281.50;5035237;28;20035;-37
2023/04/26 03:36:29;;;;;;;16.40;10.75;;;4.40;99.90;;;3.62;100.00;97284.97;5041351;28;20032;-38
2023/04/26 03:38:55;;;;;;;16.77;11.15;;;4.40;99.90;;;3.59;100.00;97275.47;5037526;28;20037;-38
2023/04/26 03:41:21;;;;;;;16.27;10.00;;;4.30;99.90;;;3.56;100.00;97275.50;5040215;28;20496;-37
2023/04/26 03:43:47;;;;;;;15.07;9.55;;;4.30;99.90;;;3.48;100.00;97258.19;5034235;28;20040;-38
2023/04/26 03:46:13;;;;;;;15.63;9.80;;;4.30;99.90;;;3.48;100.00;97260.81;5033653;28;20465;-39
2023/04/26 03:48:39;;;;;;;15.63;10.02;;;4.30;99.90;;;3.48;100.00;97266.88;5029793;28;20025;-38
2023/04/26 03:51:05;;;;;;;16.42;9.45;;;4.20;99.90;;;3.42;100.00;97267.81;5037800;28;20029;-37
2023/04/26 03:53:31;;;;;;;14.50;9.70;;;4.20;99.90;;;3.37;100.00;97269.59;5033931;28;20033;-38
2023/04/26 03:55:57;;;;;;;16.63;9.38;;;4.10;99.90;;;3.27;100.00;97268.00;5038276;28;20075;-37
2023/04/26 03:58:24;;;;;;;15.43;9.25;;;4.00;99.90;;;3.27;100.00;97280.13;5036531;28;20047;-37
2023/04/26 04:00:50;;;;;;;13.80;8.95;;;4.00;99.90;;;3.20;100.00;97275.00;5037368;28;20383;-37
2023/04/26 04:03:16;;;;;;;15.32;9.07;;;3.90;99.90;;;3.15;100.00;97282.00;5041801;28;20037;-37
2023/04/26 04:05:42;;;;;;;16.48;9.50;;;3.90;99.90;;;3.11;100.00;97280.31;5029536;28;20037;-38
2023/04/26 04:08:08;;;;;;;15.85;9.23;;;3.80;99.90;;;3.05;100.00;97276.00;5010416;28;20028;-38
2023/04/26 04:10:35;;;;;;;14.02;9.13;;;3.70;99.90;;;3.01;100.00;97276.91;5021355;28;20033;-38
2023/04/26 04:13:01;;;;;;;13.68;9.23;;;3.70;99.90;;;2.94;100.00;97271.75;5025860;28;20055;-37
2023/04/26 04:15:26;;;;;;;13.30;9.23;;;3.70;99.90;;;2.94;100.00;97266.56;5026679;28;20029;-37
2023/04/26 04:17:52;;;;;;;15.88;9.10;;;3.70;99.90;;;3.01;100.00;97281.25;5027149;28;20075;-38
2023/04/26 04:20:19;;;;;;;16.80;8.98;;;3.70;99.90;;;3.02;100.00;97278.63;5016963;28;20037;-38
2023/04/26 04:22:46;;;;;;;18.08;9.30;;;3.70;99.90;;;3.02;100.00;97269.97;5025844;28;20108;-38
2023/04/26 04:25:12;;;;;;;15.23;9.32;;;3.70;99.90;;;2.99;100.00;97267.38;5024796;28;20111;-38
2023/04/26 04:27:41;;;;;;;14.68;9.02;;;3.70;99.90;;;2.99;100.00;97259.56;5024955;28;20033;-38
2023/04/26 04:30:08;;;;;;;14.40;9.43;;;3.70;99.90;;;3.08;100.00;97275.09;5019064;28;20025;-38
2023/04/26 04:32:34;;;;;;;19.27;9.38;;;3.80;99.90;;;3.12;100.00;97283.75;5024763;28;20127;-37
2023/04/26 04:35:00;;;;;;;15.82;9.95;;;3.80;99.90;;;3.03;100.00;97263.84;5027716;28;20028;-38
2023/04/26 04:37:27;;;;;;;14.05;9.07;;;3.80;99.90;;;3.13;100.00;97269.88;5028242;28;20148;-38
2023/04/26 04:39:53;;;;;;;16.10;9.85;;;3.90;99.90;;;3.25;100.00;97285.38;5029065;28;20502;-38
2023/04/26 04:42:20;;;;;;;17.05;10.55;;;3.90;99.90;;;3.30;100.00;97285.31;5030920;28;20032;-37
2023/04/26 04:44:46;;;;;;;14.15;9.50;;;3.90;99.90;;;3.34;100.00;97289.63;5017523;28;20044;-38
2023/04/26 04:47:12;;;;;;;15.95;9.30;;;4.00;99.90;;;3.32;100.00;97275.75;5026713;28;20638;-38
2023/04/26 04:49:37;;;;;;;17.75;9.50;;;4.00;99.90;;;3.41;100.00;97286.97;5029189;28;20764;-40
2023/04/26 04:52:05;;;;;;;15.70;9.23;;;4.10;99.90;;;3.46;100.00;97289.50;5033579;28;20032;-38
2023/04/26 04:54:31;;;;;;;15.00;9.25;;;4.10;99.90;;;3.51;100.00;97286.84;5027842;28;20449;-38
2023/04/26 04:56:57;;;;;;;12.85;9.20;;;4.20;99.90;;;3.57;100.00;97292.88;5036937;28;20028;-39
2023/04/26 04:59:23;;;;;;;14.20;9.57;;;4.20;99.90;;;3.66;100.00;97294.53;5036949;28;20332;-39
2023/04/26 05:01:50;;;;;;;15.38;9.50;;;4.30;99.90;;;3.72;100.00;97293.59;5033061;28;20285;-39
2023/04/26 05:04:16;;;;;;;17.15;9.48;;;4.40;99.90;;;3.82;100.00;97303.91;5026664;28;20029;-39
2023/04/26 05:06:41;;;;;;;17.30;10.88;;;4.50;99.90;;;3.81;100.00;97290.88;5031542;28;20757;-39
2023/04/26 05:09:08;;;;;;;15.95;10.20;;;4.50;99.90;;;3.97;100.00;97307.22;5036967;28;20037;-39
2023/04/26 05:11:34;;;;;;;16.50;10.77;;;4.60;99.90;;;4.00;100.00;97313.25;5007588;28;20419;-39
2023/04/26 05:14:00;;;;;;;17.13;10.38;;;4.70;99.90;;;4.11;100.00;97314.84;5039765;28;20416;-39
2023/04/26 05:16:26;;;;;;;16.08;9.60;;;4.80;99.90;;;4.18;100.00;97317.38;5044344;28;20024;-39
2023/04/26 05:18:52;;;;;;;17.40;10.27;;;4.80;99.90;;;4.28;100.00;97325.09;5016487;28;20420;-40
2023/04/26 05:21:17;;;;;;;14.23;9.88;;;4.90;99.90;;;4.32;100.00;97322.41;5038694;28;20562;-39
2023/04/26 05:23:43;;;;;;;16.00;10.27;;;5.00;99.90;;;4.37;100.00;97317.97;5035606;28;20029;-39
2023/04/26 05:26:15;;;;;;;12.43;8.98;;;5.00;99.90;;;4.40;100.00;97317.94;5039675;28;20060;-39
2023/04/26 05:28:41;;;;;;;13.07;9.40;;;5.00;99.90;;;4.55;100.00;97329.91;5035468;28;21009;-38
2023/04/26 05:31:08;;;;;;;15.32;9.85;;;5.10;99.90;;;4.68;100.00;97332.34;5034069;28;20037;-39
2023/04/26 05:33:34;;;;;;;14.95;9.15;;;5.30;99.90;;;4.73;100.00;97330.53;5053717;22;20045;-36
2023/04/26 05:36:00;;;;;;;17.25;10.23;;;5.30;99.90;;;4.71;100.00;97333.19;5032445;28;20037;-35
2023/04/26 05:38:26;;;;;;;12.40;8.48;;;5.30;99.90;;;4.73;100.00;97331.41;5022237;28;20053;-35
2023/04/26 05:40:51;;;;;;;16.02;9.63;;;5.40;99.90;;;4.72;100.00;97334.91;5019455;28;20232;-36
2023/04/26 05:43:18;;;;;;;12.30;8.40;;;5.30;99.90;;;4.73;100.00;97341.84;5006943;28;20029;-36
2023/04/26 05:45:56;;;;;;;16.35;9.20;;;5.40;99.90;;;4.73;100.00;97336.63;5013961;28;20079;-37
2023/04/26 05:48:23;;;;;;;14.90;9.20;;;5.40;99.90;;;4.74;100.00;97338.38;5017010;28;20172;-37
2023/04/26 05:50:50;;;;;;;21.00;9.60;;;5.40;99.90;;;4.79;100.00;97348.72;5012842;28;20045;-37
2023/04/26 05:53:18;;;;;;;16.67;10.00;;;5.40;99.90;;;4.81;100.00;97348.72;5016114;28;20123;-37
2023/04/26 05:55:43;;;;;;;15.65;8.80;;;5.50;99.90;;;4.87;100.00;97353.88;5015254;28;20025;-37
2023/04/26 05:58:10;;;;;;;14.82;10.18;;;5.50;99.90;;;4.89;100.00;97352.94;5013562;28;20447;-36
2023/04/26 06:00:37;;;;;;;13.40;9.88;;;5.60;99.90;;;5.02;100.00;97353.59;5015553;28;20037;-36
2023/04/26 06:03:03;;;;;;;15.93;9.90;;;5.60;99.90;;;5.06;100.00;97352.69;5017510;28;20029;-36
2023/04/26 06:05:28;;;;;;;15.45;9.23;;;5.70;99.90;;;5.13;100.00;97342.97;5015458;28;20507;-36
2023/04/26 06:07:54;;;;;;;16.45;10.40;;;5.80;99.90;;;5.22;100.00;97344.59;5014956;28;20736;-36
2023/04/26 06:10:20;;;;;;;19.30;10.25;;;5.80;99.90;;;5.25;100.00;97344.53;5013130;28;20032;-37
2023/04/26 06:12:46;;;;;;;15.90;9.38;;;5.90;99.90;;;5.31;100.00;97344.44;5018334;28;20231;-37
2023/04/26 06:15:12;;;;;;;15.35;9.55;;;6.00;99.90;;;5.35;100.00;97349.59;5014514;28;20025;-36
2023/04/26 06:17:39;;;;;;;15.48;9.88;;;6.00;99.90;;;5.35;100.00;97346.97;5017536;28;20021;-37
2023/04/26 06:20:06;;;;;;;13.75;10.13;;;6.10;99.90;;;5.40;100.00;97341.69;5016619;28;20022;-36
2023/04/26 06:22:31;;;;;;;16.48;10.43;;;6.10;99.90;;;5.54;100.00;97358.00;5014889;28;20052;-36
2023/04/26 06:24:57;;;;;;;17.13;9.20;;;6.20;99.90;;;5.67;100.00;97366.50;5018268;28;20493;-36
2023/04/26 06:27:23;;;;;;;15.70;9.63;;;6.30;99.90;;;5.64;100.00;97355.22;5017744;28;20086;-36
2023/04/26 06:29:49;;;;;;;15.45;9.15;;;6.30;99.90;;;5.64;100.00;97365.69;5014148;28;20034;-36
2023/04/26 06:32:15;;;;;;;14.20;8.48;;;6.40;99.90;;;5.69;100.00;97362.09;5017066;28;20072;-36
2023/04/26 06:34:42;;;;;;;14.98;9.15;;;6.40;99.90;;;5.70;100.00;97345.47;5012599;28;20037;-36
2023/04/26 06:37:08;;;;;;;15.02;8.60;;;6.40;99.90;;;5.85;100.00;97373.16;5016849;28;20456;-36
2023/04/26 06:39:34;;;;;;;21.40;8.80;;;6.50;99.90;;;5.89;100.00;97371.34;5015816;28;20037;-37
2023/04/26 06:42:00;;;;;;;13.57;8.30;;;6.60;99.90;;;5.90;100.00;97376.53;5020076;28;20030;-37
2023/04/26 06:44:26;;;;;;;15.43;8.20;;;6.60;99.90;;;5.98;100.00;97367.72;5014578;28;20052;-37
2023/04/26 06:46:55;;;;;;;15.65;8.48;;;6.70;99.90;;;6.00;100.00;97352.84;5017185;28;20037;-37
2023/04/26 06:49:21;;;;;;;12.65;8.00;;;6.70;99.90;;;6.19;100.00;97374.25;5013970;28;20037;-36
2023/04/26 06:51:47;;;;;;;15.98;7.25;;;6.80;99.90;;;6.17;100.00;97366.44;5013400;28;21079;-37
2023/04/26 06:54:12;;;;;;;11.05;6.75;;;6.90;99.90;;;6.31;100.00;97377.50;5015228;28;20025;-37
2023/04/26 06:56:38;;;;;;;12.48;6.20;;;7.00;99.90;;;6.20;100.00;97347.19;5015814;28;20366;-37
2023/04/26 06:59:05;;;;;;;10.93;6.50;;;7.00;99.90;;;6.33;100.00;97377.47;5017263;28;20571;-37
2023/04/26 07:01:33;;;;;;;13.57;7.00;;;7.10;99.90;;;6.53;100.00;97378.81;5015938;28;20030;-37
2023/04/26 07:04:02;;;;;;;11.27;6.28;;;7.10;99.90;;;6.75;100.00;97372.22;4994681;28;20128;-37
2023/04/26 07:06:30;;;;;;;11.40;6.15;;;7.20;99.90;;;7.03;100.00;97375.09;5016308;28;20029;-37
2023/04/26 07:08:57;;;;;;;9.93;5.28;;;7.40;99.90;;;7.18;100.00;97366.00;5012641;28;20048;-37
2023/04/26 07:11:23;;;;;;;11.63;4.82;;;7.60;99.90;;;7.35;100.00;97362.09;5017646;28;20096;-36
2023/04/26 07:13:49;;;;;;;6.85;4.57;;;7.70;99.90;;;7.48;100.00;97365.28;5016037;28;20037;-45
2023/04/26 07:16:15;;;;;;;8.90;4.63;;;7.90;99.90;;;7.67;100.00;97361.28;5016895;28;20037;-36
2023/04/26 07:18:41;;;;;;;8.07;4.50;;;8.10;99.90;;;7.89;100.00;97348.44;5011171;28;20029;-36
2023/04/26 07:21:07;;;;;;;8.30;4.55;;;8.20;99.90;;;8.08;100.00;97346.19;5016443;28;20060;-37
2023/04/26 07:23:33;;;;;;;8.18;4.70;;;8.50;99.90;;;8.19;100.00;97351.13;5013320;28;20033;-37
2023/04/26 07:26:00;;;;;;;8.13;4.88;;;8.60;99.90;;;8.47;100.00;97358.25;5018900;28;20124;-37
2023/04/26 07:28:26;;;;;;;6.72;4.05;;;8.90;99.90;;;8.73;100.00;97347.81;5014806;28;20033;-37
2023/04/26 07:30:52;;;;;;;7.63;4.50;;;9.10;99.90;;;9.08;95.23;97358.16;5013615;28;20037;-37
2023/04/26 07:33:18;;;;;;;7.30;4.55;;;9.40;99.90;;;9.21;97.11;97341.09;5007416;28;20034;-36
2023/04/26 07:35:44;;;;;;;5.53;3.65;;;9.60;99.90;;;9.38;96.11;97345.78;4994133;28;20033;-37
2023/04/26 07:38:10;;;;;;;7.22;4.03;;;9.70;99.90;;;9.47;90.26;97339.34;4996446;28;20064;-38
2023/04/26 07:40:35;;;;;;;10.20;4.45;;;9.90;99.90;;;9.44;82.09;97337.69;4994141;28;20033;-37
2023/04/26 07:43:01;;;;;;;6.18;3.67;;;10.00;99.90;;;9.43;82.83;97350.91;4996166;28;20030;-37
2023/04/26 07:45:27;;;;;;;7.57;3.50;;;10.00;99.90;;;9.41;78.70;97342.19;4993390;28;20083;-36
2023/04/26 07:47:53;;;;;;;5.30;3.50;;;10.00;99.90;;;9.39;77.09;97358.03;4991975;28;20041;-37
2023/04/26 07:50:19;;;;;;;9.63;4.70;;;10.00;99.90;;;9.28;75.96;97354.91;4993766;28;20038;-37
2023/04/26 07:52:45;;;;;;;9.00;3.90;;;9.90;99.90;;;9.17;73.45;97360.50;4988458;28;20042;-37
2023/04/26 07:55:11;;;;;;;7.53;3.83;;;9.80;99.90;;;9.33;76.74;97350.31;4999051;28;20606;-36
2023/04/26 07:57:36;;;;;;;8.02;4.53;;;9.90;99.90;;;9.46;72.58;97356.06;4984624;28;20037;-36
2023/04/26 08:00:09;;;;;;;9.93;4.55;;;10.10;99.90;;;9.32;67.83;97346.84;4995095;28;20029;-37
2023/04/26 08:02:35;;;;;;;8.60;3.78;;;10.00;99.90;;;9.39;71.08;97351.94;4995406;28;20108;-37
2023/04/26 08:05:01;;;;;;;10.07;4.13;;;10.10;99.90;;;9.32;69.32;97370.53;4991046;28;20041;-37
2023/04/26 08:07:26;;;;;;;11.68;4.07;;;10.00;99.90;;;9.17;69.98;97366.63;4989046;28;20077;-38
2023/04/26 08:09:52;;;;;;;10.05;4.50;;;9.90;99.90;;;9.18;79.39;97354.31;4991497;28;20092;-40
2023/04/26 08:12:18;;;;;;;11.20;4.20;;;9.90;99.90;;;9.31;80.02;97360.94;4999342;28;20022;-40
2023/04/26 08:14:45;;;;;;;12.32;4.63;;;10.00;99.90;;;9.30;77.94;97343.41;4995336;28;20080;-39
2023/04/26 08:17:11;;;;;;;6.03;3.97;;;10.10;99.90;;;9.41;76.10;97348.31;4998508;28;20029;-39
2023/04/26 08:19:37;;;;;;;11.27;4.68;;;10.20;99.90;;;9.49;69.77;97359.47;4991261;28;20037;-40
2023/04/26 08:22:04;;;;;;;11.40;4.85;;;10.30;99.90;;;9.40;73.93;97365.00;4993247;28;20030;-39
2023/04/26 08:24:30;;;;;;;8.38;4.47;;;10.30;99.90;;;9.85;71.30;97371.41;4994694;28;20034;-40
2023/04/26 08:26:57;;;;;;;9.65;4.68;;;10.50;99.90;;;10.05;62.43;97365.44;4994305;28;20111;-41
2023/04/26 08:29:25;;;;;;;11.20;4.50;;;10.80;99.90;;;10.20;62.53;97362.28;4993088;28;20025;-42
2023/04/26 08:31:51;;;;;;;12.10;3.85;;;11.00;99.90;;;10.61;64.65;97367.00;4992812;28;20037;-40
2023/04/26 08:34:16;;;;;;;6.05;3.70;;;11.20;99.90;;;10.88;61.10;97355.38;5016525;28;20025;-39
2023/04/26 08:36:42;;;;;;;8.85;3.63;;;11.50;99.90;;;11.03;58.72;97364.47;5014557;28;20040;-37
2023/04/26 08:39:08;;;;;;;5.00;3.22;;;11.60;99.90;;;10.96;61.38;97362.13;5012843;28;20038;-38
2023/04/26 08:41:49;;;;;;;7.30;3.30;;;11.60;99.90;;;10.89;64.40;97372.94;5009472;28;20161;-37
2023/04/26 08:44:17;;;;;;;6.53;2.90;;;11.50;99.90;;;10.75;65.16;97374.34;4999094;28;20382;-37
2023/04/26 08:47:02;;;;;;;7.20;3.80;;;11.30;99.90;;;10.50;60.85;97368.25;5028720;28;20041;-37
2023/04/26 08:49:42;;;;;;;10.25;3.83;;;11.10;99.90;;;10.33;65.13;97373.25;5012441;28;20025;-37
2023/04/26 08:52:11;;;;;;;6.30;2.83;;;10.90;99.90;;;10.18;66.73;97374.66;5008270;28;20129;-38
2023/04/26 08:54:39;;;;;;;5.53;3.20;;;10.80;99.90;;;10.15;71.96;97374.75;5004190;28;20308;-37
2023/04/26 08:57:08;;;;;;;5.40;3.70;;;10.70;99.90;;;10.08;64.88;97371.47;5010010;28;20045;-37
2023/04/26 08:59:36;;;;;;;11.40;3.97;;;10.70;99.90;;;10.17;65.20;97372.06;5012698;28;20061;-41
2023/04/26 09:02:06;;;;;;;5.88;3.17;;;10.80;99.90;;;10.35;64.96;97367.94;5018486;28;20029;-41
2023/04/26 09:04:32;;;;;;;11.45;3.97;;;11.00;99.90;;;10.49;59.58;97378.84;5013968;28;20645;-42
2023/04/26 09:07:03;;;;;;;17.58;4.72;;;11.20;99.90;;;10.84;63.66;97374.03;4999175;28;20041;-41
2023/04/26 09:09:41;;;;;;;10.35;3.83;;;11.40;99.90;;;11.15;63.65;97373.69;5015567;28;20115;-41
2023/04/26 09:12:07;;;;;;;11.45;4.72;;;11.70;99.90;;;11.05;58.28;97367.91;5018371;28;20029;-41
2023/04/26 09:14:33;;;;;;;11.90;4.45;;;11.80;99.90;;;11.19;61.04;97377.91;5022606;28;20374;-42
2023/04/26 09:16:59;;;;;;;7.45;4.40;;;11.80;99.90;;;11.14;57.06;97373.75;5003838;28;20057;-41
2023/04/26 09:19:39;;;;;;;6.80;3.60;;;11.70;99.90;;;10.98;58.98;97366.44;5016641;28;20033;-41
2023/04/26 09:22:05;;;;;;;8.68;4.10;;;11.60;99.90;;;11.01;59.03;97376.00;5024005;28;20378;-41
2023/04/26 09:24:49;;;;;;;8.32;3.92;;;11.60;99.90;;;10.91;58.80;97378.16;5020792;28;20064;-40
2023/04/26 09:27:15;;;;;;;8.93;4.00;;;11.40;99.90;;;10.75;55.18;97369.97;5020200;28;20033;-40
2023/04/26 09:30:19;;;;;;;8.45;4.00;;;11.30;99.90;;;10.53;57.27;97366.41;5017282;28;20423;-40
2023/04/26 09:32:56;;;;;;;9.98;4.03;;;11.10;99.90;;;10.40;57.91;97364.22;5022097;28;20142;-41
2023/04/26 09:35:25;;;;;;;6.70;3.90;;;11.00;99.90;;;10.34;60.35;97359.19;5021947;28;20017;-40
2023/04/26 09:38:12;;;;;;;9.13;3.97;;;10.90;99.90;;;10.37;64.90;97358.19;5019788;28;20520;-41
2023/04/26 09:40:44;;;;;;;8.35;3.95;;;10.90;99.90;;;10.30;60.18;97362.78;5019959;28;20044;-41
2023/04/26 09:43:12;;;;;;;7.72;4.55;;;10.90;99.90;;;10.30;62.63;97346.97;5021672;28;20440;-39
2023/04/26 09:45:52;;;;;;;8.05;4.35;;;10.90;99.90;;;10.08;58.26;97350.38;5015027;28;20512;-38
2023/04/26 09:48:27;;;;;;;11.32;4.03;;;10.90;99.90;;;10.26;60.26;97356.78;5016853;28;20120;-38
2023/04/26 09:50:56;;;;;;;7.28;3.85;;;10.90;99.90;;;10.41;63.26;97349.25;5016155;28;20116;-38
2023/04/26 09:53:40;;;;;;;5.13;3.42;;;11.00;99.90;;;10.76;64.67;97354.97;5019217;28;20044;-38
2023/04/26 09:56:17;;;;;;;7.05;3.60;;;11.30;99.90;;;11.11;62.78;97350.09;5001317;28;20018;-38
2023/04/26 09:58:46;;;;;;;8.00;3.78;;;11.60;99.90;;;11.35;58.82;97354.41;5005946;28;20393;-38
2023/04/26 10:01:17;;;;;;;9.85;3.63;;;12.00;99.90;;;11.46;60.60;97341.59;5007919;28;20370;-38
2023/04/26 10:03:44;;;;;;;6.47;3.83;;;12.20;99.90;;;11.87;59.01;97353.16;5014882;28;20045;-38
2023/04/26 10:06:11;;;;;;;10.73;3.85;;;12.50;99.90;;;12.08;55.07;97360.19;5011396;28;20095;-38
2023/04/26 10:08:37;;;;;;;6.35;3.80;;;12.70;99.90;;;12.27;55.33;97357.56;5010384;28;20060;-39
2023/04/26 10:11:06;;;;;;;7.72;3.97;;;12.90;99.90;;;12.38;52.66;97349.16;5016548;28;20121;-38
2023/04/26 10:13:32;;;;;;;7.70;4.03;;;13.10;99.90;;;12.27;51.09;97341.72;5017250;28;20032;-38
2023/04/26 10:16:02;;;;;;;7.18;3.40;;;13.10;99.50;;;12.55;53.72;97343.13;5016183;28;20485;-38
2023/04/26 10:18:31;;;;;;;7.95;3.47;;;13.20;99.90;;;12.74;52.53;97338.69;5014268;28;20029;-38
2023/04/26 10:21:02;;;;;;;10.18;4.45;;;13.40;99.90;;;12.90;54.94;97327.38;5011894;28;20029;-36